Terminal Aerodrome Forecast
Issued by NWS

Home | Current Version | Previous Version | Text Only | Print | Product List | Glossary On
Versions: 1 2 3 4 5 6 7 8 9 10 11 12 13 14 15 16 17 18
000
FTUS44 KTSA 150500
TAFBVO
TAF
KBVO 150520Z 1506/1606 18005KT P6SM SCT050 BKN100
     FM151500 20010KT P6SM BKN200
     FM152200 24008KT P6SM VCTS SCT050CB BKN120
     FM160100 01009KT P6SM BKN040=

USA.gov is the U.S. government's official web portal to all federal, state and local government web resources and services.